KIAH/IAH METAR and TAF weather

Enter ICAO airport designator
Station Type Date Time Source
KIAH METAR 2019/04/23 03:53 UTC NOAA

KIAH 230353Z 13010KT 10SM FEW020 SCT040 BKN250 21/19 A3005 RMK AO2 SLP175 T02110189


Station Type Date Time Source
KIAH Decoded METAR 2019/04/23 03:53 UTC NOAA

HOUSTON INTERCONTINENTAL, TX, United States (KIAH) 30-00N 095-22W 36M
Apr 22, 2019 - 11:53 PM EDT / 2019.04.23 0353 UTC
Wind: from the SE (130 degrees) at 12 MPH (10 KT):0
Visibility: 10 mile(s):0
Sky conditions: mostly cloudy
Temperature: 70.0 F (21.1 C)
Dew Point: 66.0 F (18.9 C)
Relative Humidity: 87%
Pressure (altimeter): 30.05 in. Hg (1017 hPa)
ob: KIAH 230353Z 13010KT 10SM FEW020 SCT040 BKN250 21/19 A3005 RMK AO2 SLP175 T02110189
cycle: 4

Station Type Date Time Source
KIAH TAF 2019/04/23 03:58 UTC NOAA

TAF
AMD KIAH 230258Z 2303/2406 13009KT P6SM FEW020 BKN250
FM230500 14007KT P6SM BKN025 BKN180
FM230900 14008KT P6SM BKN015 BKN180
FM231500 14014KT P6SM SCT015 BKN025
FM231900 14013G20KT P6SM SCT035 BKN150
FM240300 14008KT P6SM SCT020 BKN030

Example: see airport list